Terminal Aerodrome Forecast
Issued by NWS Duluth, MN

Home | Current Version | Previous Version | Text Only | Print | Product List | Glossary On
Versions: 1 2 3 4 5 6 7 8 9 10 11 12 13 14 15 16 17 18 19 20 21 22 23 24 25
000
FTUS43 KDLH 311421 AAC
TAFINL
TAF AMD
KINL 311421Z 3114/0112 12012G20KT 1 1/2SM +RA BR SCT009 OVC025
     FM311700 12014G21KT 3SM -RA BR VCTS BKN015CB
     FM312100 13012G18KT 3SM BR VCTS BKN008CB
     FM010200 13011KT 3SM BR OVC012
     FM010600 13005KT P6SM SCT015 BKN080
     FM011000 14004KT P6SM VCSH BKN025=

USA.gov is the U.S. government's official web portal to all federal, state and local government web resources and services.